TimeCST,TemperatureF,Dew PointF,Humidity,Sea Level PressureIn,VisibilityMPH,Wind Direction,Wind SpeedMPH,Gust SpeedMPH,PrecipitationIn,Events,Conditions,WindDirDegrees,DateUTC
12:53 AM,33.1,26.1,75,30.22,10.0,SW,4.6,-,N/A,,Clear,220,2013-01-09 06:53:00
1:53 AM,33.1,26.1,75,30.23,10.0,SW,6.9,-,N/A,,Clear,230,2013-01-09 07:53:00
2:53 AM,32.0,26.1,79,30.26,10.0,WSW,5.8,-,N/A,,Clear,240,2013-01-09 08:53:00
3:53 AM,30.0,25.0,82,30.28,10.0,SW,6.9,-,N/A,,Clear,220,2013-01-09 09:53:00
4:53 AM,32.0,26.1,79,30.30,10.0,West,6.9,-,N/A,,Clear,260,2013-01-09 10:53:00
5:53 AM,28.9,24.1,82,30.31,10.0,WSW,3.5,-,N/A,,Clear,240,2013-01-09 11:53:00
6:53 AM,32.0,26.1,79,30.33,8.0,WNW,5.8,-,N/A,,Clear,290,2013-01-09 12:53:00
7:53 AM,28.9,24.1,82,30.38,9.0,West,3.5,-,N/A,,Clear,270,2013-01-09 13:53:00
8:53 AM,32.0,28.0,85,30.41,10.0,WSW,3.5,-,N/A,,Overcast,250,2013-01-09 14:53:00
9:53 AM,39.0,30.0,70,30.43,10.0,NNW,4.6,-,N/A,,Overcast,340,2013-01-09 15:53:00
10:53 AM,45.0,30.9,58,30.43,10.0,NNE,8.1,-,N/A,,Overcast,20,2013-01-09 16:53:00
11:53 AM,48.9,32.0,52,30.41,10.0,North,8.1,-,N/A,,Mostly Cloudy,10,2013-01-09 17:53:00
12:53 PM,52.0,32.0,47,30.38,10.0,NNE,12.7,-,N/A,,Mostly Cloudy,30,2013-01-09 18:53:00
1:53 PM,55.9,28.9,36,30.35,10.0,NNE,9.2,-,N/A,,Mostly Cloudy,30,2013-01-09 19:53:00
2:53 PM,57.9,27.0,31,30.37,10.0,NNE,5.8,-,N/A,,Mostly Cloudy,30,2013-01-09 20:53:00
3:53 PM,57.0,26.1,30,30.39,10.0,ENE,3.5,-,N/A,,Mostly Cloudy,60,2013-01-09 21:53:00
4:53 PM,50.0,30.0,46,30.39,10.0,SSE,5.8,-,N/A,,Mostly Cloudy,160,2013-01-09 22:53:00
5:53 PM,50.0,28.9,44,30.40,10.0,ESE,9.2,-,N/A,,Overcast,120,2013-01-09 23:53:00
6:53 PM,46.0,28.9,51,30.40,10.0,ESE,6.9,-,N/A,,Overcast,120,2013-01-10 00:53:00
7:53 PM,44.1,28.9,55,30.40,10.0,ESE,5.8,-,N/A,,Overcast,120,2013-01-10 01:53:00
8:53 PM,43.0,30.0,60,30.41,10.0,ESE,6.9,-,N/A,,Mostly Cloudy,120,2013-01-10 02:53:00
9:53 PM,42.1,28.9,60,30.40,10.0,ESE,8.1,-,N/A,,Scattered Clouds,110,2013-01-10 03:53:00
10:53 PM,41.0,28.0,60,30.38,10.0,ESE,8.1,-,N/A,,Scattered Clouds,110,2013-01-10 04:53:00
11:53 PM,42.1,26.1,53,30.35,10.0,ESE,12.7,-,N/A,,Scattered Clouds,110,2013-01-10 05:53:00